TFFFTFFR

Guest
Details From TFFF - Martinique/Aime Cesaire Intl
To TFFR - Pointe a Pitre Le Raizet
Flight Number -
Tags generated
Created
Modified
Stats Distance 105 nm / 195 km
Max Altitude 9,600 ft / 2,926 m
Waypoints 3
Social Downloads 8
Likes 0
Share

Download

Looking for another format? Having issues loading an existing format? Contact us
Advertisement - Login to hide

Notes

Basic altitude profile: - Ascent Rate: 2500ft/min - Ascent Speed: 250kts - Cruise Altitude: 10000ft - Cruise Speed: 420kts - Descent Rate: 1500ft/min - Descent Speed: 250kts Options: - Use NATs: yes - Use PACOTS: yes - Use low airways: yes - Use high airways: yes

Route

TFFF DOM TFFR

ID Type Via Altitude (ft/m) Position (lat/lon) Dist (leg/tot) Name
O TFFF APT - 0 / 0 14.59103 / -61.00317 - / 0 nm Martinique/Aime Cesaire Intl
DOM NDB - 9,600 / 2,926 15.55094 / -61.29564 60 / 60 nm MELVILLE HALL NDB
O TFFR APT - 0 / 0 16.26531 / -61.53181 45 / 105 nm Pointe a Pitre Le Raizet

Altitude Profile

Advertisement - Login to hide

TFFF

Details ICAO TFFF (FDF)
Name Martinique Aime Cesaire Intl
Region France (Guadeloupe, Martinique, Saint Barthélemy, Saint Martin)
Timezone America/Martinique (UTC-4.0)
Stats Elevation 16 ft / 5 m (AMSL)
Location 14.590800° -61.004600°
Runways 1
Magnetic Variation 15.148° W

METAR

TFFF 250200Z AUTO 10006KT 9999 FEW026 26/23 Q1014

Decode

TAF

TAF TAF TFFF 242319Z 2423/2518 CNL

Decode

Departure Runways

ID Width Length Bearing (true/mag) Surface Threshold Overrun Markings Lighting
10 148 ft / 45 m 9,852 ft / 3,003 m 79.94° / 95.09° ASPHALT 0 ft / 0 m 52 ft / 16 m PREC-APP EDGE THRESHOLD ALSF-II REIL-OMNI
28 148 ft / 45 m 9,852 ft / 3,003 m 259.95° / 275.10° ASPHALT 817 ft / 249 m 994 ft / 303 m PREC-APP EDGE THRESHOLD ALSF-II REIL-OMNI

TFFR

Details ICAO TFFR (PTP)
Name Pointe-A-Pitre Intl
Region France (Guadeloupe, Martinique, Saint Barthélemy, Saint Martin)
Timezone America/Guadeloupe (UTC-4.0)
Stats Elevation 35 ft / 11 m (AMSL)
Location 16.265500° -61.533000°
Runways 1
Magnetic Variation 14.932° W

METAR

TFFR 250200Z AUTO 10006KT CAVOK 24/22 Q1014

Decode

TAF

TAF AMD TFFR 242319Z 2423/2518 CNL

Decode

Destination Runways

ID Width Length Bearing (true/mag) Surface Threshold Overrun Markings Lighting
12 148 ft / 45 m 10,673 ft / 3,253 m 100.87° / 115.80° ASPHALT 1,309 ft / 399 m 98 ft / 30 m PREC-APP CENTERLINE EDGE THRESHOLD TDZ REIL-OMNI
30 148 ft / 45 m 10,673 ft / 3,253 m 280.87° / 295.81° ASPHALT 978 ft / 298 m 853 ft / 260 m APP CENTERLINE EDGE THRESHOLD TDZ REIL-OMNI

Approach Navaids

Runway Type Ident Frequency Range Bearing (true/mag) Slope Elevation
12 GS PP 110.30 MHz 10 nm / 19 km 100.95° / 115.88 ° 3.20° 35 ft / 11 m (AMSL)
12 LOC-ILS PP 110.30 MHz 18 nm / 33 km 100.95° / 115.88 ° - 35 ft / 11 m (AMSL)

Popular Alternatives